createdAt,value
2023-09-10T00:01:09.241Z,100.00
2023-09-10T00:03:56.133Z,100.00
2023-09-10T00:06:23.690Z,100.00
2023-09-10T00:08:50.467Z,100.00
2023-09-10T00:11:17.538Z,100.00
2023-09-10T00:13:44.608Z,100.00
2023-09-10T00:16:12.093Z,100.00
2023-09-10T00:18:39.163Z,100.00
2023-09-10T00:21:06.506Z,100.00
2023-09-10T00:23:33.310Z,100.00
2023-09-10T00:26:00.469Z,100.00
2023-09-10T00:28:27.339Z,100.00
2023-09-10T00:30:55.301Z,100.00
2023-09-10T00:33:22.149Z,100.00
2023-09-10T00:35:49.185Z,100.00
2023-09-10T00:38:16.034Z,100.00
2023-09-10T00:40:43.229Z,100.00
2023-09-10T00:43:11.166Z,100.00
2023-09-10T00:45:39.040Z,100.00
2023-09-10T00:48:06.584Z,100.00
2023-09-10T00:50:34.415Z,100.00
2023-09-10T00:53:01.820Z,100.00
2023-09-10T00:55:31.159Z,100.00
2023-09-10T00:57:59.104Z,100.00
2023-09-10T01:00:28.664Z,100.00
2023-09-10T01:02:56.940Z,100.00
2023-09-10T01:05:24.063Z,100.00
2023-09-10T01:07:51.126Z,100.00
2023-09-10T01:10:18.541Z,100.00
2023-09-10T01:13:01.689Z,100.00
2023-09-10T01:15:38.090Z,100.00
2023-09-10T01:18:28.407Z,100.00
2023-09-10T01:21:30.986Z,100.00
2023-09-10T01:24:16.310Z,100.00
2023-09-10T01:26:43.420Z,100.00
2023-09-10T01:29:14.664Z,100.00
2023-09-10T01:31:45.669Z,100.00
2023-09-10T01:34:16.683Z,100.00
2023-09-10T01:36:50.864Z,100.00
2023-09-10T01:39:37.664Z,100.00
2023-09-10T01:42:09.224Z,100.00
2023-09-10T01:44:37.217Z,100.00
2023-09-10T01:47:04.992Z,100.00
2023-09-10T01:49:32.760Z,100.00
2023-09-10T01:51:59.915Z,100.00
2023-09-10T01:54:28.495Z,100.00
2023-09-10T01:56:56.416Z,100.00
2023-09-10T01:59:23.531Z,100.00
2023-09-10T02:01:50.343Z,100.00
2023-09-10T02:04:17.656Z,100.00
2023-09-10T02:06:44.554Z,100.00
2023-09-10T02:09:11.640Z,100.00
2023-09-10T02:11:38.508Z,100.00
2023-09-10T02:14:05.668Z,100.00
2023-09-10T02:16:32.563Z,100.00
2023-09-10T02:19:03.324Z,100.00
2023-09-10T02:21:30.348Z,100.00
2023-09-10T02:23:57.459Z,100.00
2023-09-10T02:26:24.328Z,100.00
2023-09-10T02:28:51.455Z,100.00
2023-09-10T02:31:18.336Z,100.00
2023-09-10T02:33:45.362Z,100.00
2023-09-10T02:36:12.118Z,100.00
2023-09-10T02:38:39.494Z,100.00
2023-09-10T02:41:07.702Z,100.00
2023-09-10T02:43:37.697Z,100.00
2023-09-10T02:46:04.675Z,100.00
2023-09-10T02:48:31.972Z,100.00
2023-09-10T02:50:58.940Z,100.00
2023-09-10T02:53:25.981Z,100.00
2023-09-10T02:56:02.114Z,100.00
2023-09-10T02:58:30.896Z,100.00
2023-09-10T03:01:06.671Z,100.00
2023-09-10T03:03:34.904Z,100.00
2023-09-10T03:06:01.919Z,100.00
2023-09-10T03:08:29.256Z,100.00
2023-09-10T03:11:02.875Z,100.00
2023-09-10T03:13:33.494Z,100.00
2023-09-10T03:16:00.468Z,100.00
2023-09-10T03:18:28.131Z,100.00
2023-09-10T03:20:55.954Z,100.00
2023-09-10T03:23:25.550Z,100.00
2023-09-10T03:25:53.557Z,100.00
2023-09-10T03:28:23.487Z,100.00
2023-09-10T03:30:52.927Z,100.00
2023-09-10T03:33:20.099Z,100.00
2023-09-10T03:35:47.153Z,100.00
2023-09-10T03:38:14.331Z,100.00
2023-09-10T03:40:41.234Z,100.00
2023-09-10T03:43:08.354Z,100.00
2023-09-10T03:45:36.173Z,100.00
2023-09-10T03:48:03.458Z,100.00
2023-09-10T03:50:30.360Z,100.00
2023-09-10T03:53:00.755Z,100.00
2023-09-10T03:55:30.520Z,100.00
2023-09-10T03:58:00.365Z,100.00
2023-09-10T04:00:27.456Z,100.00
2023-09-10T04:02:57.683Z,100.00
2023-09-10T04:05:24.837Z,100.00
2023-09-10T04:07:52.247Z,100.00
2023-09-10T04:10:21.702Z,100.00
2023-09-10T04:12:48.816Z,100.00
2023-09-10T04:15:18.760Z,100.00
2023-09-10T04:17:45.885Z,100.00
2023-09-10T04:20:16.350Z,100.00
2023-09-10T04:22:43.475Z,100.00
2023-09-10T04:25:10.262Z,100.00
2023-09-10T04:27:37.378Z,100.00
2023-09-10T04:30:05.655Z,100.00
2023-09-10T04:32:33.523Z,100.00
2023-09-10T04:35:00.585Z,100.00
2023-09-10T04:37:29.038Z,100.00
2023-09-10T04:39:55.921Z,100.00
2023-09-10T04:42:23.010Z,100.00
2023-09-10T04:44:50.630Z,100.00
2023-09-10T04:47:17.871Z,100.00
2023-09-10T04:49:44.829Z,100.00
2023-09-10T04:52:11.992Z,100.00
2023-09-10T04:54:38.819Z,100.00
2023-09-10T04:57:09.471Z,100.00
2023-09-10T04:59:41.954Z,100.00
2023-09-10T05:02:09.694Z,100.00
2023-09-10T05:04:39.436Z,100.00
2023-09-10T05:07:14.199Z,100.00
2023-09-10T05:09:41.443Z,100.00
2023-09-10T05:12:10.664Z,100.00
2023-09-10T05:14:37.526Z,100.00
2023-09-10T05:17:05.002Z,100.00
2023-09-10T05:19:31.790Z,100.00
2023-09-10T05:22:01.766Z,100.00
2023-09-10T05:24:28.568Z,100.00
2023-09-10T05:26:57.929Z,100.00
2023-09-10T05:29:27.294Z,100.00
2023-09-10T05:31:57.418Z,100.00
2023-09-10T05:34:24.339Z,100.00
2023-09-10T05:36:52.927Z,100.00
2023-09-10T05:39:20.173Z,100.00
2023-09-10T05:41:47.286Z,100.00
2023-09-10T05:44:14.148Z,100.00
2023-09-10T05:46:41.281Z,100.00
2023-09-10T05:49:08.186Z,100.00
2023-09-10T05:51:35.303Z,100.00
2023-09-10T05:54:02.159Z,100.00
2023-09-10T05:56:32.129Z,100.00
2023-09-10T05:59:00.019Z,100.00
2023-09-10T06:01:27.426Z,100.00
2023-09-10T06:03:54.840Z,100.00
2023-09-10T06:06:24.868Z,100.00
2023-09-10T06:08:54.426Z,100.00
2023-09-10T06:11:24.145Z,100.00
2023-09-10T06:13:51.019Z,100.00
2023-09-10T06:16:18.618Z,100.00
2023-09-10T06:18:45.584Z,100.00
2023-09-10T06:21:12.666Z,100.00
2023-09-10T06:23:39.441Z,100.00
2023-09-10T06:26:06.834Z,100.00
2023-09-10T06:28:33.705Z,100.00
2023-09-10T06:31:01.658Z,100.00
2023-09-10T06:33:28.648Z,100.00
2023-09-10T06:35:56.652Z,100.00
2023-09-10T06:38:23.594Z,100.00
2023-09-10T06:40:53.786Z,100.00
2023-09-10T06:43:26.398Z,100.00
2023-09-10T06:45:53.536Z,100.00
2023-09-10T06:48:23.499Z,100.00
2023-09-10T06:50:50.675Z,100.00
2023-09-10T06:53:17.502Z,100.00
2023-09-10T06:55:44.739Z,100.00
2023-09-10T06:58:15.423Z,100.00
2023-09-10T07:00:42.840Z,100.00
2023-09-10T07:03:11.360Z,100.00
2023-09-10T07:05:42.987Z,100.00
2023-09-10T07:08:14.574Z,100.00
2023-09-10T07:10:44.679Z,100.00
2023-09-10T07:13:11.507Z,100.00
2023-09-10T07:15:39.684Z,100.00
2023-09-10T07:18:06.670Z,100.00
2023-09-10T07:20:37.821Z,100.00
2023-09-10T07:23:04.986Z,100.00
2023-09-10T07:25:32.157Z,100.00
2023-09-10T07:27:58.980Z,97.14
2023-09-10T07:30:26.096Z,98.24
2023-09-10T07:32:53.070Z,100.00
2023-09-10T07:35:20.291Z,97.57
2023-09-10T07:37:47.186Z,92.24
2023-09-10T07:40:17.354Z,90.45
2023-09-10T07:42:45.229Z,91.65
2023-09-10T07:45:15.661Z,96.47
2023-09-10T07:47:43.295Z,89.35
2023-09-10T07:50:13.573Z,86.53
2023-09-10T07:52:49.332Z,87.68
2023-09-10T07:55:16.525Z,84.01
2023-09-10T07:57:46.561Z,83.87
2023-09-10T08:00:14.198Z,79.07
2023-09-10T08:02:42.102Z,80.06
2023-09-10T08:05:10.279Z,79.36
2023-09-10T08:07:37.316Z,80.15
2023-09-10T08:10:04.858Z,78.81
2023-09-10T08:12:34.740Z,76.81
2023-09-10T08:15:03.210Z,77.52
2023-09-10T08:17:35.215Z,79.48
2023-09-10T08:20:02.384Z,78.03
2023-09-10T08:22:38.932Z,73.01
2023-09-10T08:25:11.317Z,71.08
2023-09-10T08:27:38.114Z,72.03
2023-09-10T08:30:09.100Z,71.66
2023-09-10T08:32:39.259Z,74.36
2023-09-10T08:35:07.192Z,72.61
2023-09-10T08:37:34.028Z,70.17
2023-09-10T08:40:04.407Z,69.71
2023-09-10T08:42:51.394Z,67.53
2023-09-10T08:45:18.625Z,69.69
2023-09-10T08:47:49.169Z,67.13
2023-09-10T08:50:16.729Z,65.57
2023-09-10T08:52:45.498Z,67.45
2023-09-10T08:55:14.270Z,64.11
2023-09-10T08:57:47.219Z,68.14
2023-09-10T09:00:14.570Z,62.88
2023-09-10T09:02:43.319Z,60.54
2023-09-10T09:05:11.298Z,58.92
2023-09-10T09:07:49.250Z,58.28
2023-09-10T09:10:36.703Z,59.03
2023-09-10T09:13:09.792Z,60.25
2023-09-10T09:15:42.459Z,56.06
2023-09-10T09:18:10.677Z,57.68
2023-09-10T09:20:39.750Z,55.19
2023-09-10T09:23:13.953Z,55.14
2023-09-10T09:25:44.749Z,54.92
2023-09-10T09:28:13.842Z,54.67
2023-09-10T09:30:41.423Z,53.34
2023-09-10T09:33:08.349Z,53.80
2023-09-10T09:35:38.248Z,53.43
2023-09-10T09:38:06.606Z,54.83
2023-09-10T09:40:35.263Z,56.17
2023-09-10T09:43:20.272Z,53.06
2023-09-10T09:45:48.584Z,53.91
2023-09-10T09:48:18.371Z,54.98
2023-09-10T09:50:48.348Z,52.93
2023-09-10T09:53:16.282Z,51.64
2023-09-10T09:55:46.202Z,45.92
2023-09-10T09:58:13.177Z,43.40
2023-09-10T10:00:40.246Z,45.28
2023-09-10T10:03:07.234Z,42.01
2023-09-10T10:05:35.125Z,40.64
2023-09-10T10:08:02.086Z,41.40
2023-09-10T10:10:29.205Z,43.98
2023-09-10T10:12:58.845Z,42.62
2023-09-10T10:15:27.440Z,42.83
2023-09-10T10:17:56.144Z,41.50
2023-09-10T10:20:23.744Z,42.13
2023-09-10T10:22:52.418Z,40.28
2023-09-10T10:25:20.358Z,41.68
2023-09-10T10:27:48.503Z,42.79
2023-09-10T10:30:15.628Z,40.18
2023-09-10T10:32:46.937Z,37.79
2023-09-10T10:35:14.779Z,38.65
2023-09-10T10:37:52.315Z,37.56
2023-09-10T10:40:25.903Z,37.61
2023-09-10T10:43:17.547Z,37.07
2023-09-10T10:45:47.511Z,40.01
2023-09-10T10:48:20.885Z,35.40
2023-09-10T10:50:50.272Z,35.82
2023-09-10T10:53:21.965Z,35.11
2023-09-10T10:55:54.703Z,35.67
2023-09-10T10:58:32.136Z,35.72
2023-09-10T11:01:00.516Z,34.79
2023-09-10T11:03:27.470Z,35.79
2023-09-10T11:05:59.214Z,34.29
2023-09-10T11:08:27.666Z,34.40
2023-09-10T11:10:55.377Z,34.73
2023-09-10T11:13:25.986Z,34.34
2023-09-10T11:16:19.724Z,35.11
2023-09-10T11:18:46.703Z,34.33
2023-09-10T11:21:17.668Z,34.29
2023-09-10T11:23:56.354Z,34.54
2023-09-10T11:26:23.436Z,32.99
2023-09-10T11:29:01.207Z,33.16
2023-09-10T11:31:36.577Z,34.39
2023-09-10T11:34:24.544Z,34.12
2023-09-10T11:36:54.873Z,33.91
2023-09-10T11:39:23.840Z,30.67
2023-09-10T11:41:53.033Z,29.22
2023-09-10T11:44:21.512Z,29.63
2023-09-10T11:46:52.540Z,28.87
2023-09-10T11:49:20.781Z,31.06
2023-09-10T11:51:56.323Z,31.29
2023-09-10T11:54:23.936Z,29.43
2023-09-10T11:56:59.016Z,29.31
2023-09-10T11:59:32.766Z,28.25
2023-09-10T12:02:00.851Z,28.28
2023-09-10T12:04:32.492Z,28.82
2023-09-10T12:07:02.908Z,27.62
2023-09-10T12:09:31.362Z,27.78
2023-09-10T12:12:28.354Z,27.40
2023-09-10T12:14:56.172Z,26.93
2023-09-10T12:17:24.288Z,26.99
2023-09-10T12:19:51.684Z,27.27
2023-09-10T12:22:22.350Z,26.64
2023-09-10T12:24:49.342Z,25.40
2023-09-10T12:27:19.216Z,23.89
2023-09-10T12:29:46.661Z,23.13
2023-09-10T12:32:14.170Z,23.09
2023-09-10T12:34:44.200Z,20.85
2023-09-10T12:37:18.134Z,20.31
2023-09-10T12:39:46.332Z,21.71
2023-09-10T12:42:13.516Z,22.08
2023-09-10T12:44:42.190Z,21.58
2023-09-10T12:47:13.634Z,21.24
2023-09-10T12:49:41.357Z,20.62
2023-09-10T12:52:08.638Z,19.04
2023-09-10T12:54:35.574Z,19.90
2023-09-10T12:57:14.134Z,19.44
2023-09-10T12:59:41.201Z,19.09
2023-09-10T13:02:11.356Z,18.37
2023-09-10T13:04:44.035Z,20.13
2023-09-10T13:07:14.365Z,17.17
2023-09-10T13:09:42.542Z,17.57
2023-09-10T13:12:10.368Z,18.06
2023-09-10T13:14:40.776Z,17.20
2023-09-10T13:17:10.318Z,16.50
2023-09-10T13:19:38.990Z,17.80
2023-09-10T13:22:08.110Z,17.41
2023-09-10T13:24:35.214Z,16.34
2023-09-10T13:27:02.561Z,17.36
2023-09-10T13:29:29.470Z,15.52
2023-09-10T13:31:56.658Z,17.90
2023-09-10T13:34:23.533Z,17.13
2023-09-10T13:36:50.642Z,17.26
2023-09-10T13:39:17.449Z,16.63
2023-09-10T13:41:51.858Z,16.92
2023-09-10T13:44:18.767Z,15.99
2023-09-10T13:46:48.390Z,15.07
2023-09-10T13:49:16.248Z,15.49
2023-09-10T13:51:48.561Z,16.23
2023-09-10T13:54:15.410Z,16.14
2023-09-10T13:56:42.953Z,15.70
2023-09-10T13:59:09.905Z,15.40
2023-09-10T14:01:40.431Z,15.35
2023-09-10T14:04:07.591Z,14.67
2023-09-10T14:06:35.437Z,15.52
2023-09-10T14:09:05.559Z,15.67
2023-09-10T14:11:32.774Z,15.94
2023-09-10T14:14:00.102Z,15.78
2023-09-10T14:16:27.344Z,15.45
2023-09-10T14:18:54.380Z,14.99
2023-09-10T14:21:22.270Z,15.27
2023-09-10T14:23:49.141Z,16.31
2023-09-10T14:26:16.323Z,15.47
2023-09-10T14:28:43.286Z,15.59
2023-09-10T14:31:10.841Z,15.75
2023-09-10T14:33:38.449Z,16.18
2023-09-10T14:36:08.751Z,15.79
2023-09-10T14:38:35.614Z,15.42
2023-09-10T14:41:02.844Z,15.67
2023-09-10T14:43:31.217Z,16.47
2023-09-10T14:45:58.321Z,15.90
2023-09-10T14:48:25.378Z,15.74
2023-09-10T14:50:52.508Z,15.95
2023-09-10T14:53:19.432Z,15.30
2023-09-10T14:55:46.621Z,15.03
2023-09-10T14:58:16.138Z,15.41
2023-09-10T15:00:43.353Z,15.16
2023-09-10T15:03:10.322Z,15.19
2023-09-10T15:05:41.172Z,16.22
2023-09-10T15:08:12.440Z,17.03
2023-09-10T15:10:39.601Z,16.84
2023-09-10T15:13:06.476Z,15.82
2023-09-10T15:15:36.551Z,15.37
2023-09-10T15:18:04.837Z,15.34
2023-09-10T15:20:35.188Z,16.35
2023-09-10T15:23:05.128Z,16.03
2023-09-10T15:25:32.379Z,16.46
2023-09-10T15:28:00.476Z,18.19
2023-09-10T15:30:27.660Z,16.28
2023-09-10T15:32:54.617Z,15.84
2023-09-10T15:35:22.802Z,16.78
2023-09-10T15:37:49.607Z,16.53
2023-09-10T15:40:19.490Z,17.31
2023-09-10T15:42:49.372Z,16.59
2023-09-10T15:45:16.480Z,17.79
2023-09-10T15:47:50.784Z,17.79
2023-09-10T15:50:20.670Z,18.08
2023-09-10T15:52:50.505Z,17.97
2023-09-10T15:55:17.628Z,18.87
2023-09-10T15:57:50.777Z,21.95
2023-09-10T16:00:18.323Z,24.19
2023-09-10T16:02:48.584Z,25.14
2023-09-10T16:05:15.996Z,27.49
2023-09-10T16:07:43.041Z,26.02
2023-09-10T16:10:10.373Z,29.12
2023-09-10T16:12:40.274Z,31.37
2023-09-10T16:15:07.885Z,33.01
2023-09-10T16:17:34.714Z,33.30
2023-09-10T16:20:05.792Z,36.17
2023-09-10T16:22:34.578Z,34.66
2023-09-10T16:25:04.636Z,38.57
2023-09-10T16:27:31.510Z,38.27
2023-09-10T16:30:02.475Z,34.57
2023-09-10T16:32:29.410Z,39.41
2023-09-10T16:35:01.076Z,40.67
2023-09-10T16:37:29.106Z,42.07
2023-09-10T16:39:56.338Z,42.93
2023-09-10T16:42:23.139Z,41.44
2023-09-10T16:44:52.651Z,42.55
2023-09-10T16:47:19.524Z,44.73
2023-09-10T16:49:46.616Z,44.44
2023-09-10T16:52:13.448Z,45.54
2023-09-10T16:54:40.691Z,44.23
2023-09-10T16:57:07.781Z,47.04
2023-09-10T16:59:34.888Z,47.38
2023-09-10T17:02:01.845Z,48.66
2023-09-10T17:04:31.279Z,48.54
2023-09-10T17:06:59.311Z,52.33
2023-09-10T17:09:26.370Z,53.65
2023-09-10T17:11:56.133Z,54.51
2023-09-10T17:14:23.330Z,53.87
2023-09-10T17:16:50.188Z,52.78
2023-09-10T17:19:18.188Z,54.47
2023-09-10T17:21:45.000Z,53.59
2023-09-10T17:24:14.681Z,56.52
2023-09-10T17:26:41.735Z,57.14
2023-09-10T17:29:08.904Z,58.29
2023-09-10T17:31:36.245Z,57.68
2023-09-10T17:34:03.362Z,59.99
2023-09-10T17:36:30.286Z,60.55
2023-09-10T17:38:57.447Z,61.42
2023-09-10T17:41:24.293Z,62.78
2023-09-10T17:43:52.986Z,63.02
2023-09-10T17:46:19.993Z,63.71
2023-09-10T17:48:49.145Z,63.67
2023-09-10T17:51:21.760Z,64.44
2023-09-10T17:53:49.077Z,65.46
2023-09-10T17:56:19.203Z,66.86
2023-09-10T17:58:46.400Z,68.25
2023-09-10T18:01:13.331Z,69.37
2023-09-10T18:03:40.774Z,69.01
2023-09-10T18:06:11.115Z,70.76
2023-09-10T18:08:38.225Z,71.99
2023-09-10T18:11:05.062Z,72.55
2023-09-10T18:13:35.132Z,72.99
2023-09-10T18:16:04.823Z,72.81
2023-09-10T18:18:31.982Z,73.36
2023-09-10T18:21:01.423Z,73.80
2023-09-10T18:23:31.622Z,74.05
2023-09-10T18:26:01.611Z,74.83
2023-09-10T18:28:28.720Z,76.32
2023-09-10T18:31:06.366Z,76.62
2023-09-10T18:33:40.578Z,77.49
2023-09-10T18:36:07.636Z,78.11
2023-09-10T18:38:43.126Z,78.83
2023-09-10T18:41:10.098Z,80.31
2023-09-10T18:43:37.742Z,80.45
2023-09-10T18:46:08.108Z,80.08
2023-09-10T18:48:35.266Z,80.21
2023-09-10T18:51:04.357Z,81.09
2023-09-10T18:53:32.460Z,81.11
2023-09-10T18:56:02.562Z,82.71
2023-09-10T18:58:29.795Z,83.23
2023-09-10T19:00:58.144Z,83.75
2023-09-10T19:03:25.824Z,83.52
2023-09-10T19:05:54.222Z,83.91
2023-09-10T19:08:21.318Z,84.39
2023-09-10T19:10:52.729Z,85.31
2023-09-10T19:13:20.873Z,85.33
2023-09-10T19:15:51.076Z,86.38
2023-09-10T19:18:18.843Z,87.71
2023-09-10T19:20:48.147Z,87.86
2023-09-10T19:23:19.310Z,88.26
2023-09-10T19:25:46.195Z,88.38
2023-09-10T19:28:13.814Z,89.37
2023-09-10T19:30:41.755Z,89.10
2023-09-10T19:33:10.457Z,89.08
2023-09-10T19:35:40.132Z,90.45
2023-09-10T19:38:07.263Z,90.80
2023-09-10T19:40:35.541Z,90.98
2023-09-10T19:43:05.516Z,90.99
2023-09-10T19:45:32.375Z,90.71
2023-09-10T19:47:59.569Z,91.91
2023-09-10T19:50:26.702Z,92.81
2023-09-10T19:52:53.943Z,93.45
2023-09-10T19:55:23.571Z,93.26
2023-09-10T19:57:50.639Z,94.44
2023-09-10T20:00:17.621Z,94.90
2023-09-10T20:02:47.810Z,95.24
2023-09-10T20:05:14.879Z,94.10
2023-09-10T20:07:43.083Z,94.79
2023-09-10T20:10:11.771Z,95.96
2023-09-10T20:12:39.231Z,96.48
2023-09-10T20:15:08.351Z,96.85
2023-09-10T20:17:38.247Z,97.42
2023-09-10T20:20:05.929Z,97.96
2023-09-10T20:22:33.068Z,99.03
2023-09-10T20:24:59.948Z,98.77
2023-09-10T20:27:27.090Z,98.42
2023-09-10T20:29:54.085Z,98.56
2023-09-10T20:32:21.265Z,98.99
2023-09-10T20:34:48.462Z,99.24
2023-09-10T20:37:15.565Z,99.94
2023-09-10T20:39:42.953Z,100.00
2023-09-10T20:42:10.149Z,100.00
2023-09-10T20:44:37.014Z,100.00
2023-09-10T20:47:04.406Z,100.00
2023-09-10T20:49:34.254Z,100.00
2023-09-10T20:52:04.405Z,100.00
2023-09-10T20:54:31.185Z,100.00
2023-09-10T20:56:58.334Z,100.00
2023-09-10T20:59:25.184Z,100.00
2023-09-10T21:01:52.300Z,100.00
2023-09-10T21:04:19.218Z,100.00
2023-09-10T21:06:46.797Z,100.00
2023-09-10T21:09:16.410Z,100.00
2023-09-10T21:11:43.588Z,100.00
2023-09-10T21:14:10.424Z,100.00
2023-09-10T21:16:37.564Z,100.00
2023-09-10T21:19:04.524Z,100.00
2023-09-10T21:21:34.707Z,100.00
2023-09-10T21:24:02.889Z,100.00
2023-09-10T21:26:32.609Z,100.00
2023-09-10T21:29:02.401Z,100.00
2023-09-10T21:31:29.515Z,100.00
2023-09-10T21:33:56.316Z,100.00
2023-09-10T21:36:23.763Z,100.00
2023-09-10T21:38:50.568Z,100.00
2023-09-10T21:41:17.720Z,100.00
2023-09-10T21:43:44.477Z,100.00
2023-09-10T21:46:11.652Z,100.00
2023-09-10T21:48:38.739Z,100.00
2023-09-10T21:51:06.227Z,100.00
2023-09-10T21:53:33.102Z,100.00
2023-09-10T21:56:00.211Z,100.00
2023-09-10T21:58:27.049Z,100.00
2023-09-10T22:00:54.120Z,100.00
2023-09-10T22:03:21.065Z,100.00
2023-09-10T22:05:51.157Z,100.00
2023-09-10T22:08:18.015Z,100.00
2023-09-10T22:10:45.108Z,100.00
2023-09-10T22:13:19.204Z,100.00
2023-09-10T22:15:49.344Z,100.00
2023-09-10T22:18:16.217Z,100.00
2023-09-10T22:20:43.329Z,100.00
2023-09-10T22:23:17.808Z,100.00
2023-09-10T22:25:49.320Z,100.00
2023-09-10T22:28:20.855Z,100.00
2023-09-10T22:30:48.306Z,100.00
2023-09-10T22:33:15.592Z,100.00
2023-09-10T22:35:42.818Z,100.00
2023-09-10T22:38:09.800Z,100.00
2023-09-10T22:40:36.875Z,100.00
2023-09-10T22:43:03.702Z,100.00
2023-09-10T22:45:30.836Z,100.00
2023-09-10T22:47:57.737Z,100.00
2023-09-10T22:50:24.994Z,100.00
2023-09-10T22:52:55.131Z,100.00
2023-09-10T22:55:22.660Z,100.00
2023-09-10T22:57:49.721Z,100.00
2023-09-10T23:00:17.135Z,100.00
2023-09-10T23:02:44.065Z,100.00
2023-09-10T23:05:14.215Z,100.00
2023-09-10T23:07:47.058Z,100.00
2023-09-10T23:10:22.061Z,100.00
2023-09-10T23:12:53.346Z,100.00
2023-09-10T23:15:28.708Z,100.00
2023-09-10T23:17:56.619Z,100.00
2023-09-10T23:20:24.209Z,100.00
2023-09-10T23:23:00.756Z,100.00
2023-09-10T23:25:30.954Z,100.00
2023-09-10T23:27:57.767Z,100.00
2023-09-10T23:30:25.068Z,100.00
2023-09-10T23:32:51.911Z,100.00
2023-09-10T23:35:19.124Z,100.00
2023-09-10T23:37:46.406Z,100.00
2023-09-10T23:40:13.471Z,100.00
2023-09-10T23:42:40.347Z,100.00
2023-09-10T23:45:11.750Z,100.00
2023-09-10T23:47:38.720Z,100.00
2023-09-10T23:50:06.256Z,100.00
2023-09-10T23:52:33.025Z,100.00
2023-09-10T23:55:00.377Z,100.00
2023-09-10T23:57:27.206Z,100.00
2023-09-10T23:59:56.996Z,100.00
